Time;durP1;ratioP1;P1;durP2;ratioP2;P2;SDS_P1;SDS_P2;PMS_P1;PMS_P2;Temp;Humidity;BMP_temperature;BMP_pressure;BME280_temperature;BME280_humidity;BME280_pressure;Samples;Min_cycle;Max_cycle;Signal;HPM_P1;HPM_P2
2021/01/12 00:00:09;;;;;;;9.30;4.60;;;7.30;96.10;;;;;;5023751;28;21555;-73
2021/01/12 00:02:34;;;;;;;10.07;4.60;;;7.00;96.00;;;;;;5024302;28;20040;-74
2021/01/12 00:05:01;;;;;;;8.93;3.95;;;6.90;96.00;;;;;;5021142;28;20049;-74
2021/01/12 00:07:26;;;;;;;7.80;3.88;;;7.00;96.00;;;;;;5026061;28;20037;-74
2021/01/12 00:09:52;;;;;;;11.13;4.25;;;6.90;95.90;;;;;;5029439;28;20168;-74
2021/01/12 00:12:18;;;;;;;12.13;4.15;;;7.00;96.00;;;;;;5021489;28;20487;-74
2021/01/12 00:14:45;;;;;;;9.32;4.10;;;7.00;96.00;;;;;;5019813;28;20034;-74
2021/01/12 00:17:12;;;;;;;11.27;4.38;;;6.90;95.90;;;;;;5023594;28;20128;-74
2021/01/12 00:19:38;;;;;;;12.13;4.50;;;7.00;96.00;;;;;;5020684;28;20045;-74
2021/01/12 00:22:07;;;;;;;11.65;4.22;;;7.00;96.00;;;;;;5022367;28;20484;-74
2021/01/12 00:25:08;;;;;;;9.70;4.15;;;7.00;96.00;;;;;;5022764;28;20041;-74
2021/01/12 00:27:33;;;;;;;8.52;4.20;;;7.00;95.90;;;;;;5023955;28;20041;-74
2021/01/12 00:29:59;;;;;;;9.00;3.15;;;7.00;95.90;;;;;;5023909;28;20061;-74
2021/01/12 00:32:26;;;;;;;12.32;4.28;;;7.00;95.90;;;;;;5022063;28;20040;-74
2021/01/12 00:34:53;;;;;;;11.30;4.68;;;7.00;95.90;;;;;;5023000;28;20617;-74
2021/01/12 00:37:26;;;;;;;15.73;4.60;;;7.00;95.90;;;;;;5018081;28;20377;-74
2021/01/12 00:39:53;;;;;;;8.50;3.80;;;7.00;96.00;;;;;;5022910;28;20069;-74
2021/01/12 00:42:19;;;;;;;13.18;3.83;;;7.00;95.90;;;;;;5021421;28;20053;-74
2021/01/12 00:44:45;;;;;;;10.15;4.13;;;7.00;95.90;;;;;;5023289;28;20064;-74
2021/01/12 00:47:11;;;;;;;10.57;4.47;;;7.00;95.90;;;;;;5025759;28;20076;-74
2021/01/12 00:49:37;;;;;;;10.45;4.63;;;7.00;95.90;;;;;;5024899;28;20037;-74
2021/01/12 00:52:12;;;;;;;13.00;4.70;;;7.00;96.20;;;;;;5022793;28;20066;-74
2021/01/12 00:54:38;;;;;;;14.50;4.40;;;7.00;96.00;;;;;;5025353;28;21513;-74
2021/01/12 00:57:04;;;;;;;14.43;4.43;;;7.00;96.10;;;;;;5023363;28;20057;-74
2021/01/12 00:59:30;;;;;;;12.13;3.97;;;7.00;96.10;;;;;;5023799;28;20121;-74
2021/01/12 01:02:00;;;;;;;9.75;4.20;;;7.10;96.10;;;;;;5027942;28;20033;-74
2021/01/12 01:04:26;;;;;;;9.15;4.07;;;7.00;96.00;;;;;;5022710;28;20120;-74
2021/01/12 01:06:52;;;;;;;8.18;3.40;;;7.00;96.10;;;;;;5022896;28;20037;-74
2021/01/12 01:09:18;;;;;;;8.85;3.47;;;7.10;96.10;;;;;;5020505;28;20495;-74
2021/01/12 01:11:46;;;;;;;5.82;3.42;;;7.10;96.00;;;;;;5023576;28;20073;-74
2021/01/12 01:14:12;;;;;;;8.73;3.45;;;7.10;96.10;;;;;;5022906;28;20044;-74
2021/01/12 01:16:39;;;;;;;11.52;4.07;;;7.10;96.00;;;;;;5025375;28;20056;-74
2021/01/12 01:19:06;;;;;;;8.80;3.47;;;7.10;96.00;;;;;;5019319;28;20379;-74
2021/01/12 01:21:32;;;;;;;13.73;4.47;;;7.10;96.00;;;;;;5023907;28;20037;-74
2021/01/12 01:23:58;;;;;;;10.52;4.70;;;7.00;96.10;;;;;;5023270;28;20424;-74
2021/01/12 01:26:23;;;;;;;10.00;3.85;;;7.00;96.10;;;;;;5024061;28;20049;-74
2021/01/12 01:28:49;;;;;;;11.38;4.05;;;7.00;96.10;;;;;;5023588;28;20037;-74
2021/01/12 01:31:15;;;;;;;11.05;3.70;;;7.00;96.10;;;;;;5023155;28;20052;-74
2021/01/12 01:33:41;;;;;;;11.40;4.47;;;7.00;96.20;;;;;;5015724;28;20153;-74
2021/01/12 01:36:09;;;;;;;8.23;3.72;;;7.00;96.10;;;;;;5024420;28;20045;-74
2021/01/12 01:38:35;;;;;;;10.25;4.53;;;7.00;96.10;;;;;;5021398;28;20035;-74
2021/01/12 01:41:02;;;;;;;11.23;4.18;;;7.00;96.10;;;;;;5023504;28;20134;-74
2021/01/12 01:43:28;;;;;;;8.52;4.53;;;7.10;96.20;;;;;;5024127;28;20558;-74
2021/01/12 01:45:53;;;;;;;9.98;3.90;;;7.00;96.10;;;;;;5020090;28;20124;-74
2021/01/12 01:48:20;;;;;;;7.70;3.00;;;7.00;96.10;;;;;;5023761;28;20704;-74
2021/01/12 01:50:46;;;;;;;7.90;3.53;;;7.10;96.20;;;;;;5019743;28;20644;-74
2021/01/12 01:53:12;;;;;;;7.22;3.45;;;7.10;96.20;;;;;;5020209;28;20048;-74
2021/01/12 01:55:39;;;;;;;6.38;3.08;;;7.10;96.20;;;;;;5017146;28;20075;-74
2021/01/12 01:58:08;;;;;;;6.10;3.08;;;7.10;96.20;;;;;;5016311;28;20131;-74
2021/01/12 02:00:35;;;;;;;5.55;3.47;;;7.10;96.10;;;;;;5022909;28;20099;-74
2021/01/12 02:03:15;;;;;;;6.10;3.50;;;7.10;96.20;;;;;;5022828;28;20041;-74
2021/01/12 02:05:48;;;;;;;9.10;3.20;;;7.10;96.20;;;;;;5019386;28;20119;-74
2021/01/12 02:08:38;;;;;;;6.38;2.97;;;7.10;96.20;;;;;;5020816;28;20041;-74
2021/01/12 02:11:04;;;;;;;5.57;2.80;;;7.10;96.10;;;;;;5021267;28;20048;-74
2021/01/12 02:13:32;;;;;;;6.15;3.30;;;7.10;96.10;;;;;;5018391;28;20536;-74
2021/01/12 02:15:59;;;;;;;7.63;3.70;;;7.10;96.10;;;;;;5022393;28;20033;-74
2021/01/12 02:18:31;;;;;;;5.45;3.50;;;7.10;96.10;;;;;;5023978;28;20124;-74
2021/01/12 02:20:59;;;;;;;5.45;3.42;;;7.00;96.10;;;;;;5023338;28;20057;-74
2021/01/12 02:23:45;;;;;;;5.53;3.30;;;7.00;96.10;;;;;;5018947;28;20120;-74
2021/01/12 02:26:11;;;;;;;4.75;3.38;;;7.10;96.20;;;;;;5020316;28;20038;-74
2021/01/12 02:28:36;;;;;;;6.43;3.25;;;7.10;96.20;;;;;;5021695;28;20049;-74
2021/01/12 02:31:02;;;;;;;8.32;3.63;;;7.10;96.20;;;;;;5018010;28;20092;-74
2021/01/12 02:33:28;;;;;;;7.18;3.85;;;7.10;96.20;;;;;;5017774;28;20114;-74
2021/01/12 02:35:55;;;;;;;6.10;3.10;;;7.10;96.20;;;;;;5021748;28;20403;-73
2021/01/12 02:38:21;;;;;;;4.53;3.30;;;7.10;96.20;;;;;;5022405;28;20091;-74
2021/01/12 02:40:47;;;;;;;8.30;3.50;;;7.10;96.30;;;;;;5021594;28;20113;-73
2021/01/12 02:43:13;;;;;;;4.85;3.55;;;7.10;96.20;;;;;;5023010;28;20038;-74
2021/01/12 02:45:39;;;;;;;5.78;3.28;;;7.10;96.20;;;;;;5019897;28;20369;-74
2021/01/12 02:48:05;;;;;;;4.05;2.70;;;7.00;96.20;;;;;;5023997;28;20047;-74
2021/01/12 02:50:31;;;;;;;4.55;3.40;;;7.10;96.50;;;;;;5022251;28;21622;-74
2021/01/12 02:52:57;;;;;;;4.63;3.35;;;7.10;96.20;;;;;;5016313;28;20033;-74
2021/01/12 02:55:23;;;;;;;5.70;2.90;;;7.00;96.20;;;;;;5023091;28;20037;-74
2021/01/12 02:57:48;;;;;;;3.85;3.38;;;7.00;96.20;;;;;;5018418;28;20041;-74
2021/01/12 03:00:16;;;;;;;6.32;3.97;;;7.00;96.20;;;;;;5018982;28;20037;-74
2021/01/12 03:02:42;;;;;;;4.03;3.25;;;7.00;96.20;;;;;;5019457;28;20091;-74
2021/01/12 03:05:09;;;;;;;3.75;2.75;;;7.00;96.20;;;;;;5021827;28;20540;-74
2021/01/12 03:07:35;;;;;;;4.75;2.42;;;7.00;96.20;;;;;;5022062;28;20038;-74
2021/01/12 03:10:03;;;;;;;2.95;2.20;;;7.00;96.30;;;;;;5026413;28;20056;-74
2021/01/12 03:12:28;;;;;;;4.50;2.00;;;7.00;96.60;;;;;;5023598;28;20691;-74
2021/01/12 03:14:54;;;;;;;3.28;2.40;;;7.00;96.20;;;;;;5021943;28;20095;-74
2021/01/12 03:17:20;;;;;;;6.05;1.95;;;7.10;96.30;;;;;;5023989;28;20052;-74
2021/01/12 03:19:46;;;;;;;5.53;2.50;;;7.10;96.30;;;;;;5021596;28;20108;-74
2021/01/12 03:22:13;;;;;;;5.85;2.40;;;7.10;96.40;;;;;;5020493;28;20038;-74
2021/01/12 03:24:39;;;;;;;4.75;2.20;;;7.10;96.40;;;;;;5019852;28;20038;-74
2021/01/12 03:27:05;;;;;;;2.55;1.95;;;7.10;96.40;;;;;;5015729;28;20045;-74
2021/01/12 03:29:32;;;;;;;5.10;2.20;;;7.10;96.40;;;;;;5017372;28;20037;-74
2021/01/12 03:31:57;;;;;;;6.43;1.98;;;7.10;96.40;;;;;;5020140;28;20069;-74
2021/01/12 03:34:23;;;;;;;4.97;2.38;;;7.10;96.40;;;;;;5020913;28;20076;-74
2021/01/12 03:36:49;;;;;;;4.63;1.85;;;7.10;96.40;;;;;;5020243;28;20046;-74
2021/01/12 03:39:15;;;;;;;6.07;2.42;;;7.10;96.40;;;;;;5019060;28;20115;-74
2021/01/12 03:41:41;;;;;;;6.00;2.28;;;7.10;96.40;;;;;;5021497;28;20113;-74
2021/01/12 03:44:07;;;;;;;2.63;2.05;;;7.10;96.40;;;;;;5021848;28;20477;-74
2021/01/12 03:46:32;;;;;;;5.20;2.00;;;7.10;96.30;;;;;;5020194;28;20092;-74
2021/01/12 03:48:58;;;;;;;4.30;2.35;;;7.10;96.30;;;;;;5016712;28;20499;-74
2021/01/12 03:51:25;;;;;;;4.80;2.20;;;7.10;96.30;;;;;;5015806;28;20588;-74
2021/01/12 03:53:54;;;;;;;5.32;2.50;;;7.10;96.30;;;;;;5016928;28;20033;-74
2021/01/12 03:56:19;;;;;;;5.80;2.42;;;7.10;96.30;;;;;;5016423;28;20042;-74
2021/01/12 03:58:45;;;;;;;3.47;2.22;;;7.10;96.30;;;;;;5021178;28;20077;-74
2021/01/12 04:01:12;;;;;;;9.25;2.95;;;7.10;96.30;;;;;;5025556;28;20030;-74
2021/01/12 04:03:42;;;;;;;7.18;2.35;;;7.10;96.30;;;;;;5022567;28;20041;-74
2021/01/12 04:06:15;;;;;;;10.27;2.97;;;7.10;96.40;;;;;;5023594;28;20658;-74
2021/01/12 04:08:47;;;;;;;5.53;2.13;;;7.10;96.40;;;;;;5024549;28;20045;-74
2021/01/12 04:11:16;;;;;;;6.13;1.92;;;7.10;96.40;;;;;;5027072;28;21051;-74
2021/01/12 04:13:42;;;;;;;4.68;1.75;;;7.10;96.40;;;;;;5025805;28;20471;-74
2021/01/12 04:16:08;;;;;;;5.00;2.20;;;7.10;96.40;;;;;;5023031;28;20041;-74
2021/01/12 04:18:34;;;;;;;4.65;1.90;;;7.10;96.40;;;;;;5020845;28;20049;-74
2021/01/12 04:21:00;;;;;;;8.00;2.33;;;7.00;96.40;;;;;;5022787;28;20499;-74
2021/01/12 04:23:26;;;;;;;11.07;1.88;;;7.00;96.40;;;;;;5023893;28;20064;-74
2021/01/12 04:25:51;;;;;;;5.80;1.95;;;7.10;96.40;;;;;;5021151;28;20493;-74
2021/01/12 04:28:17;;;;;;;9.10;2.20;;;7.10;96.40;;;;;;5024515;28;20034;-74
2021/01/12 04:30:43;;;;;;;6.70;1.92;;;7.10;96.40;;;;;;5023432;28;20205;-74
2021/01/12 04:33:09;;;;;;;6.47;2.15;;;7.10;96.50;;;;;;5020518;28;20061;-74
2021/01/12 04:35:35;;;;;;;11.15;2.30;;;7.10;96.50;;;;;;5022020;28;20038;-74
2021/01/12 04:38:01;;;;;;;14.48;3.08;;;7.10;96.50;;;;;;5021857;28;21651;-74
2021/01/12 04:40:27;;;;;;;7.88;1.92;;;7.10;96.50;;;;;;5022810;28;20045;-74
2021/01/12 04:42:54;;;;;;;9.15;2.10;;;7.10;96.50;;;;;;5023458;28;20483;-74
2021/01/12 04:45:20;;;;;;;6.93;2.25;;;7.10;96.50;;;;;;5025898;28;20535;-74
2021/01/12 04:47:45;;;;;;;9.25;2.38;;;7.10;96.50;;;;;;5018283;28;20036;-74
2021/01/12 04:50:11;;;;;;;9.63;2.90;;;7.10;96.50;;;;;;5020095;28;20044;-74
2021/01/12 04:53:03;;;;;;;9.90;2.13;;;7.10;96.50;;;;;;5019355;28;20060;-74
2021/01/12 04:55:29;;;;;;;6.95;1.90;;;7.10;96.50;;;;;;5017311;28;20057;-74
2021/01/12 04:57:55;;;;;;;9.13;2.17;;;7.10;96.50;;;;;;5022034;28;20480;-74
2021/01/12 05:00:27;;;;;;;10.32;2.60;;;7.10;96.50;;;;;;5023794;28;20044;-74
2021/01/12 05:03:06;;;;;;;13.13;2.47;;;7.10;96.50;;;;;;5025213;28;20044;-74
2021/01/12 05:05:33;;;;;;;6.43;2.47;;;7.10;96.50;;;;;;5024028;28;21746;-74
2021/01/12 05:08:01;;;;;;;9.73;2.78;;;7.10;96.50;;;;;;5027158;28;20440;-74
2021/01/12 05:10:27;;;;;;;9.63;2.00;;;7.10;96.50;;;;;;5023337;28;20042;-74
2021/01/12 05:12:56;;;;;;;9.32;2.60;;;7.10;96.50;;;;;;5021057;28;20516;-74
2021/01/12 05:15:23;;;;;;;9.20;2.78;;;7.10;96.50;;;;;;5021394;28;20538;-74
2021/01/12 05:17:49;;;;;;;8.63;2.55;;;7.10;96.50;;;;;;5025133;28;20121;-74
2021/01/12 05:20:24;;;;;;;9.43;2.50;;;7.10;96.50;;;;;;5023587;28;20041;-74
2021/01/12 05:23:03;;;;;;;6.60;2.50;;;7.10;96.50;;;;;;5020288;28;20057;-74
2021/01/12 05:25:33;;;;;;;8.38;2.90;;;7.10;96.50;;;;;;5022548;28;20066;-74
2021/01/12 05:28:01;;;;;;;10.32;2.45;;;7.10;96.50;;;;;;5021069;28;20046;-74
2021/01/12 05:30:27;;;;;;;8.55;2.72;;;7.10;96.50;;;;;;5024106;28;20029;-74
2021/01/12 05:32:54;;;;;;;7.00;2.75;;;7.10;96.50;;;;;;5025039;28;20827;-74
2021/01/12 05:35:20;;;;;;;8.98;3.15;;;7.20;96.50;;;;;;5024037;28;20423;-74
2021/01/12 05:37:46;;;;;;;11.30;3.08;;;7.20;96.50;;;;;;5023585;28;20483;-74
2021/01/12 05:40:13;;;;;;;10.85;2.95;;;7.10;96.70;;;;;;5025162;28;20145;-74
2021/01/12 05:42:39;;;;;;;6.45;2.50;;;7.10;96.40;;;;;;5021177;28;20053;-74
2021/01/12 05:45:07;;;;;;;3.53;0.68;;;7.10;96.40;;;;;;5019652;28;20056;-74
2021/01/12 05:47:33;;;;;;;1.98;0.60;;;7.20;96.20;;;;;;5018397;28;20041;-74
2021/01/12 05:49:59;;;;;;;3.78;0.73;;;7.10;95.60;;;;;;5026073;28;20042;-74
2021/01/12 05:52:26;;;;;;;4.63;1.02;;;7.00;95.40;;;;;;5026406;28;20056;-74
2021/01/12 05:55:05;;;;;;;3.65;0.85;;;7.00;95.30;;;;;;5025365;28;20042;-74
2021/01/12 05:57:36;;;;;;;6.38;0.40;;;6.90;95.20;;;;;;5024310;28;20033;-74
2021/01/12 06:00:05;;;;;;;3.65;0.35;;;6.80;94.80;;;;;;5027019;28;20124;-74
2021/01/12 06:02:33;;;;;;;4.60;0.60;;;6.80;94.60;;;;;;5020949;28;20072;-74
2021/01/12 06:04:59;;;;;;;2.75;0.20;;;6.70;94.60;;;;;;5024418;28;20087;-74
2021/01/12 06:07:27;;;;;;;6.95;0.40;;;6.60;94.70;;;;;;5026359;28;20033;-74
2021/01/12 06:09:55;;;;;;;4.35;0.32;;;6.60;94.70;;;;;;5026880;28;20052;-74
2021/01/12 06:12:23;;;;;;;3.40;0.57;;;6.50;94.90;;;;;;5020899;28;20032;-74
2021/01/12 06:14:51;;;;;;;4.88;0.38;;;6.50;95.00;;;;;;5021684;28;20049;-74
2021/01/12 06:17:17;;;;;;;5.00;0.43;;;6.50;95.10;;;;;;5023478;28;20454;-74
2021/01/12 06:19:48;;;;;;;2.95;0.20;;;6.40;95.10;;;;;;5022876;28;20068;-74
2021/01/12 06:22:23;;;;;;;4.47;0.43;;;6.40;95.00;;;;;;5020911;28;20041;-73
2021/01/12 06:25:05;;;;;;;5.90;0.17;;;6.40;94.80;;;;;;5022534;28;20164;-74
2021/01/12 06:27:32;;;;;;;1.58;0.32;;;6.30;94.80;;;;;;5021355;28;20041;-74
2021/01/12 06:30:10;;;;;;;3.38;0.35;;;6.30;94.90;;;;;;5022571;28;20045;-74
2021/01/12 06:32:36;;;;;;;3.70;0.40;;;6.30;94.80;;;;;;5024368;28;20044;-73
2021/01/12 06:35:09;;;;;;;1.75;0.40;;;6.20;94.80;;;;;;5026151;28;20123;-74
2021/01/12 06:37:37;;;;;;;8.15;0.50;;;6.20;94.90;;;;;;5019385;28;20514;-73
2021/01/12 06:40:07;;;;;;;4.30;0.90;;;6.20;95.20;;;;;;5019634;28;20056;-73
2021/01/12 06:42:34;;;;;;;7.53;0.95;;;6.10;94.90;;;;;;5019499;28;20061;-73
2021/01/12 06:45:00;;;;;;;10.18;0.90;;;6.20;94.90;;;;;;5020835;28;20059;-74
2021/01/12 06:47:28;;;;;;;10.52;0.82;;;6.10;94.90;;;;;;5023629;28;20125;-73
2021/01/12 06:50:16;;;;;;;5.05;0.77;;;6.10;94.80;;;;;;5023422;28;20152;-74
2021/01/12 06:52:47;;;;;;;8.43;0.85;;;6.00;94.80;;;;;;5023175;28;20119;-73
2021/01/12 06:55:15;;;;;;;8.90;0.68;;;6.00;94.80;;;;;;5025302;28;20033;-73
2021/01/12 06:57:49;;;;;;;4.78;0.50;;;6.00;94.80;;;;;;5022766;28;20464;-74
2021/01/12 07:00:19;;;;;;;9.27;1.42;;;6.00;94.70;;;;;;5028104;28;20039;-74
2021/01/12 07:02:55;;;;;;;6.07;0.40;;;6.00;94.60;;;;;;5021837;28;20512;-74
2021/01/12 07:05:22;;;;;;;15.32;0.70;;;5.90;94.60;;;;;;5022712;28;20033;-74
2021/01/12 07:07:49;;;;;;;12.30;1.25;;;5.90;94.70;;;;;;5018704;28;20053;-73
2021/01/12 07:10:17;;;;;;;6.93;0.70;;;5.90;94.70;;;;;;5019910;28;20068;-74
2021/01/12 07:12:44;;;;;;;6.85;0.57;;;5.90;94.70;;;;;;5016351;28;20038;-74
2021/01/12 07:15:14;;;;;;;11.02;0.60;;;5.90;94.70;;;;;;5018654;28;20489;-74
2021/01/12 07:17:44;;;;;;;12.00;0.90;;;5.80;94.70;;;;;;5018385;28;20037;-74
2021/01/12 07:20:26;;;;;;;5.18;0.50;;;5.80;94.60;;;;;;5018781;28;20045;-73
2021/01/12 07:22:59;;;;;;;7.47;0.95;;;5.80;94.70;;;;;;5015191;28;20038;-73
2021/01/12 07:25:29;;;;;;;5.35;0.38;;;5.80;94.80;;;;;;5015854;28;21479;-73
2021/01/12 07:28:07;;;;;;;9.98;0.68;;;5.80;94.80;;;;;;5016215;28;20041;-73
2021/01/12 07:30:36;;;;;;;15.63;1.00;;;5.80;94.90;;;;;;5016166;28;20037;-74
2021/01/12 07:33:05;;;;;;;7.88;0.80;;;5.80;94.90;;;;;;5023294;28;20046;-73
2021/01/12 07:35:32;;;;;;;15.95;0.90;;;5.70;94.90;;;;;;5023694;28;20038;-74
2021/01/12 07:37:58;;;;;;;8.10;0.57;;;5.70;94.90;;;;;;5026047;28;20054;-73
2021/01/12 07:40:24;;;;;;;27.90;2.47;;;5.70;95.00;;;;;;5029736;28;20041;-74
2021/01/12 07:42:54;;;;;;;8.85;0.90;;;5.70;95.00;;;;;;5027483;28;20044;-73
2021/01/12 07:45:23;;;;;;;15.73;1.00;;;5.70;95.10;;;;;;5026347;28;20132;-73
2021/01/12 07:47:54;;;;;;;12.15;0.93;;;5.70;95.20;;;;;;5028232;28;20514;-74
2021/01/12 07:50:25;;;;;;;9.43;1.10;;;5.70;95.30;;;;;;5037991;28;20037;-74
2021/01/12 07:52:51;;;;;;;7.97;0.80;;;5.70;95.30;;;;;;5030853;28;20545;-74
2021/01/12 07:55:17;;;;;;;7.88;0.80;;;5.70;95.20;;;;;;5024626;28;20033;-74
2021/01/12 07:57:44;;;;;;;9.23;0.52;;;5.70;95.20;;;;;;5020429;28;20048;-74
2021/01/12 08:00:13;;;;;;;10.13;1.00;;;5.60;95.20;;;;;;5027460;28;20060;-74
2021/01/12 08:03:05;;;;;;;14.77;0.80;;;5.60;95.20;;;;;;5023793;28;20037;-74
2021/01/12 08:05:31;;;;;;;8.77;0.50;;;5.60;95.20;;;;;;5021341;28;20050;-74
2021/01/12 08:08:08;;;;;;;12.88;0.70;;;5.60;95.20;;;;;;5029927;28;20041;-73
2021/01/12 08:10:41;;;;;;;9.48;1.00;;;5.60;95.20;;;;;;5028894;28;20033;-73
2021/01/12 08:13:14;;;;;;;6.60;0.60;;;5.50;95.20;;;;;;5024478;28;20044;-73
2021/01/12 08:15:43;;;;;;;21.77;1.17;;;5.50;95.50;;;;;;5026896;28;20037;-74
2021/01/12 08:18:12;;;;;;;5.95;0.60;;;5.50;95.20;;;;;;5028976;28;20081;-74
2021/01/12 08:20:39;;;;;;;19.77;0.88;;;5.60;95.30;;;;;;5026395;28;20044;-74
2021/01/12 08:23:05;;;;;;;5.38;0.70;;;5.50;95.30;;;;;;5026869;28;20050;-74
2021/01/12 08:25:34;;;;;;;10.48;1.17;;;5.60;95.20;;;;;;5020962;28;20036;-74
2021/01/12 08:28:01;;;;;;;10.75;0.70;;;5.60;95.30;;;;;;5024370;28;20431;-74
2021/01/12 08:30:31;;;;;;;8.15;0.90;;;5.60;95.20;;;;;;5026083;28;20054;-74
2021/01/12 08:33:20;;;;;;;8.68;0.82;;;5.50;95.20;;;;;;5026971;28;20044;-74
2021/01/12 08:36:07;;;;;;;15.57;1.50;;;5.50;95.20;;;;;;5022454;28;20119;-73
2021/01/12 08:38:33;;;;;;;7.65;1.17;;;5.50;95.20;;;;;;5026222;28;20099;-74
2021/01/12 08:41:04;;;;;;;16.33;1.05;;;5.50;95.20;;;;;;5022819;28;20045;-74
2021/01/12 08:43:32;;;;;;;8.27;0.93;;;5.50;95.20;;;;;;5022408;28;20164;-74
2021/01/12 08:46:02;;;;;;;7.45;0.85;;;5.50;95.20;;;;;;5030444;28;20040;-74
2021/01/12 08:48:29;;;;;;;10.48;1.00;;;5.60;95.20;;;;;;5025833;28;20468;-73
2021/01/12 08:50:55;;;;;;;10.60;0.85;;;5.60;95.20;;;;;;5028874;28;20120;-74
2021/01/12 08:53:29;;;;;;;18.55;1.35;;;5.60;95.30;;;;;;5026171;28;20033;-74
2021/01/12 08:56:08;;;;;;;14.55;1.35;;;5.60;95.30;;;;;;5016323;28;20072;-73
2021/01/12 08:58:35;;;;;;;12.25;1.23;;;5.60;95.30;;;;;;5021377;28;20092;-74
2021/01/12 09:01:03;;;;;;;9.48;1.00;;;5.60;95.30;;;;;;5019829;28;20184;-74
2021/01/12 09:03:32;;;;;;;14.63;1.30;;;5.60;95.30;;;;;;5025676;28;20046;-74
2021/01/12 09:05:58;;;;;;;9.45;2.25;;;5.60;95.40;;;;;;5026049;28;20638;-73
2021/01/12 09:08:25;;;;;;;8.32;1.08;;;5.60;95.50;;;;;;5023978;28;20030;-74
2021/01/12 09:10:51;;;;;;;7.95;1.27;;;5.60;95.40;;;;;;5019064;28;20041;-74
2021/01/12 09:13:26;;;;;;;4.97;0.50;;;5.60;95.30;;;;;;5028534;28;20048;-74
2021/01/12 09:15:52;;;;;;;5.50;0.40;;;5.60;94.90;;;;;;5024011;28;20053;-74
2021/01/12 09:18:20;;;;;;;9.23;1.05;;;5.50;94.80;;;;;;5025895;28;20041;-74
2021/01/12 09:21:00;;;;;;;2.88;0.63;;;5.50;94.60;;;;;;5022381;28;20098;-74
2021/01/12 09:23:27;;;;;;;3.95;0.30;;;5.40;94.30;;;;;;5018718;28;20137;-74
2021/01/12 09:25:58;;;;;;;8.07;0.50;;;5.40;94.20;;;;;;5019580;28;20100;-74
2021/01/12 09:28:38;;;;;;;6.25;0.28;;;5.40;94.30;;;;;;5022396;28;20590;-74
2021/01/12 09:31:11;;;;;;;3.05;0.30;;;5.30;94.10;;;;;;5020413;28;20507;-74
2021/01/12 09:33:39;;;;;;;6.97;0.30;;;5.30;94.10;;;;;;5021847;28;20076;-74
2021/01/12 09:36:13;;;;;;;3.38;0.20;;;5.30;94.10;;;;;;5023217;28;20507;-74
2021/01/12 09:38:42;;;;;;;5.82;0.30;;;5.40;94.10;;;;;;5024342;28;20109;-74
2021/01/12 09:41:09;;;;;;;6.15;0.30;;;5.40;94.00;;;;;;5027240;28;20062;-74
2021/01/12 09:43:35;;;;;;;1.77;0.30;;;5.50;94.10;;;;;;5021190;28;20124;-74
2021/01/12 09:46:02;;;;;;;6.70;0.57;;;5.40;94.00;;;;;;5026642;28;20050;-74
2021/01/12 09:48:28;;;;;;;4.72;0.30;;;5.50;94.00;;;;;;5021551;28;20042;-74
2021/01/12 09:50:54;;;;;;;5.47;0.45;;;5.50;93.80;;;;;;5025251;28;20029;-74
2021/01/12 09:53:20;;;;;;;4.78;0.30;;;5.50;93.70;;;;;;5018050;28;20481;-74
2021/01/12 09:55:46;;;;;;;11.65;0.75;;;5.40;93.60;;;;;;5019398;28;20042;-73
2021/01/12 09:58:12;;;;;;;4.70;0.70;;;5.40;93.50;;;;;;5022249;28;20043;-73
2021/01/12 10:00:38;;;;;;;6.43;0.30;;;5.50;93.80;;;;;;5023950;28;20099;-73
2021/01/12 10:03:05;;;;;;;8.48;0.50;;;5.60;94.00;;;;;;5022420;28;20519;-73
2021/01/12 10:05:30;;;;;;;9.02;0.63;;;5.60;94.00;;;;;;5024981;28;20096;-73
2021/01/12 10:07:56;;;;;;;3.40;0.38;;;5.60;94.10;;;;;;5020606;28;20516;-73
2021/01/12 10:10:21;;;;;;;5.10;0.63;;;5.60;93.70;;;;;;5026850;28;20038;-74
2021/01/12 10:12:47;;;;;;;7.63;0.50;;;5.60;93.70;;;;;;5021644;28;20033;-73
2021/01/12 10:15:13;;;;;;;8.77;0.70;;;5.50;93.70;;;;;;5021291;28;20506;-73
2021/01/12 10:17:39;;;;;;;7.93;0.50;;;5.50;93.50;;;;;;5020646;28;20053;-73
2021/01/12 10:20:06;;;;;;;5.60;0.40;;;5.50;93.50;;;;;;5021161;28;20038;-73
2021/01/12 10:22:32;;;;;;;5.85;0.47;;;5.80;93.60;;;;;;5022159;28;20510;-73
2021/01/12 10:24:59;;;;;;;7.50;0.60;;;6.10;93.10;;;;;;5022961;28;20033;-73
2021/01/12 10:27:33;;;;;;;6.30;0.40;;;6.40;92.00;;;;;;5021584;28;20120;-73
2021/01/12 10:29:59;;;;;;;5.68;0.30;;;6.60;92.00;;;;;;5019137;28;20060;-73
2021/01/12 10:32:24;;;;;;;4.38;0.52;;;6.70;91.30;;;;;;5024617;28;20040;-73
2021/01/12 10:34:50;;;;;;;6.93;0.57;;;6.90;91.20;;;;;;5021705;28;20033;-73
2021/01/12 10:37:16;;;;;;;4.47;0.40;;;6.90;90.80;;;;;;5026012;28;20037;-73
2021/01/12 10:39:42;;;;;;;5.55;0.90;;;7.00;90.00;;;;;;5020654;28;20133;-73
2021/01/12 10:42:09;;;;;;;7.13;0.85;;;6.90;89.20;;;;;;5021427;28;20519;-73
2021/01/12 10:44:34;;;;;;;6.55;1.05;;;6.90;89.90;;;;;;5019364;28;20040;-73
2021/01/12 10:47:00;;;;;;;9.88;0.68;;;6.90;88.80;;;;;;5017674;28;20108;-73
2021/01/12 10:49:26;;;;;;;9.45;0.80;;;7.00;89.50;;;;;;5025567;28;20044;-73
2021/01/12 10:52:06;;;;;;;5.13;1.05;;;7.00;89.10;;;;;;5021174;28;20096;-73
2021/01/12 10:54:32;;;;;;;13.57;1.05;;;6.90;88.00;;;;;;5020729;28;20491;-73
2021/01/12 10:56:58;;;;;;;7.32;1.08;;;6.90;87.70;;;;;;5026179;28;20041;-73
2021/01/12 10:59:26;;;;;;;10.90;0.65;;;6.90;88.40;;;;;;5026125;28;20404;-73
2021/01/12 11:01:56;;;;;;;5.75;1.15;;;6.90;86.80;;;;;;5023605;28;20095;-73
2021/01/12 11:04:22;;;;;;;4.18;0.80;;;6.90;86.20;;;;;;5019803;28;20057;-74
2021/01/12 11:06:47;;;;;;;5.25;0.82;;;6.90;85.90;;;;;;5026191;28;20163;-73
2021/01/12 11:09:14;;;;;;;6.45;0.70;;;6.80;85.60;;;;;;5028035;28;20096;-74
2021/01/12 11:11:40;;;;;;;7.05;0.68;;;6.90;87.00;;;;;;5034984;28;20065;-73
2021/01/12 11:14:07;;;;;;;8.00;0.90;;;6.90;85.90;;;;;;5028063;28;20093;-73
2021/01/12 11:16:39;;;;;;;10.48;0.80;;;7.00;85.90;;;;;;5030491;28;20044;-73
2021/01/12 11:19:08;;;;;;;6.32;0.60;;;7.10;85.30;;;;;;5023789;28;20124;-73
2021/01/12 11:21:41;;;;;;;2.38;0.47;;;7.20;85.80;;;;;;5045023;28;20136;-73
2021/01/12 11:24:08;;;;;;;14.25;1.05;;;7.40;83.30;;;;;;5028866;28;20042;-73
2021/01/12 11:26:34;;;;;;;8.63;1.08;;;7.50;82.80;;;;;;5028539;28;20511;-73
2021/01/12 11:29:00;;;;;;;6.40;1.10;;;7.60;82.60;;;;;;5028366;28;20037;-73
2021/01/12 11:31:27;;;;;;;9.23;1.10;;;7.70;82.10;;;;;;5022651;28;20052;-73
2021/01/12 11:33:52;;;;;;;6.35;0.80;;;7.80;80.70;;;;;;5028451;28;20391;-73
2021/01/12 11:36:18;;;;;;;4.80;0.80;;;7.90;80.90;;;;;;5029147;28;20041;-74
2021/01/12 11:38:44;;;;;;;9.55;0.98;;;8.10;78.70;;;;;;5026799;28;20045;-74
2021/01/12 11:41:11;;;;;;;9.40;1.30;;;8.20;79.50;;;;;;5027043;28;20037;-74
2021/01/12 11:43:37;;;;;;;7.93;0.90;;;8.30;79.70;;;;;;5027633;28;20076;-74
2021/01/12 11:46:04;;;;;;;11.95;1.45;;;8.50;78.30;;;;;;5028098;28;20033;-74
2021/01/12 11:48:31;;;;;;;7.32;0.73;;;8.50;77.10;;;;;;5024925;28;20041;-74
2021/01/12 11:50:56;;;;;;;4.82;0.80;;;8.40;76.00;;;;;;5026471;28;20037;-73
2021/01/12 11:53:22;;;;;;;6.85;0.70;;;8.30;75.90;;;;;;5025609;28;20420;-73
2021/01/12 11:55:48;;;;;;;6.03;0.60;;;8.20;77.50;;;;;;5025216;28;20876;-73
2021/01/12 11:58:14;;;;;;;8.18;0.70;;;8.20;77.10;;;;;;5028067;28;20939;-73
2021/01/12 12:00:41;;;;;;;5.88;0.88;;;8.00;76.10;;;;;;5025328;28;20045;-73
2021/01/12 12:03:08;;;;;;;4.78;0.77;;;8.00;77.70;;;;;;5024385;28;20555;-74
2021/01/12 12:05:34;;;;;;;6.43;0.90;;;7.90;78.40;;;;;;5023666;28;20046;-73
2021/01/12 12:08:00;;;;;;;17.98;2.30;;;7.70;78.40;;;;;;5026631;28;20391;-73
2021/01/12 12:10:27;;;;;;;7.72;0.93;;;7.40;79.50;;;;;;5025300;28;20049;-73
2021/01/12 12:12:53;;;;;;;7.82;1.02;;;7.20;80.70;;;;;;5027613;28;20123;-73
2021/01/12 12:15:20;;;;;;;5.60;0.95;;;7.20;81.60;;;;;;5024707;28;20624;-73
2021/01/12 12:17:46;;;;;;;10.02;0.82;;;7.20;82.30;;;;;;5027061;28;20040;-73
2021/01/12 12:20:14;;;;;;;10.10;1.65;;;7.10;82.70;;;;;;5024538;28;20760;-73
2021/01/12 12:22:40;;;;;;;10.23;1.40;;;7.10;82.70;;;;;;5021195;28;20041;-73
2021/01/12 12:25:10;;;;;;;8.95;1.90;;;7.10;83.30;;;;;;5024925;28;20041;-73
2021/01/12 12:27:37;;;;;;;7.60;1.30;;;7.20;82.40;;;;;;5025279;28;20038;-73
2021/01/12 12:30:06;;;;;;;12.80;1.33;;;7.10;81.20;;;;;;5026987;28;20384;-73
2021/01/12 12:32:32;;;;;;;16.02;1.17;;;7.10;80.60;;;;;;5027452;28;20514;-73
2021/01/12 12:34:58;;;;;;;10.23;1.38;;;7.10;81.80;;;;;;5022937;28;20046;-73
2021/01/12 12:37:23;;;;;;;8.27;1.30;;;7.20;81.60;;;;;;5022905;28;20053;-73
2021/01/12 12:39:49;;;;;;;10.25;1.42;;;7.20;80.30;;;;;;5027402;28;20048;-73
2021/01/12 12:42:16;;;;;;;11.93;1.70;;;7.20;80.00;;;;;;5026336;28;20045;-73
2021/01/12 12:44:42;;;;;;;14.02;2.08;;;7.20;79.00;;;;;;5026112;28;20029;-72
2021/01/12 12:47:08;;;;;;;9.20;1.35;;;7.20;79.10;;;;;;5029860;28;20060;-73
2021/01/12 12:49:33;;;;;;;11.20;1.20;;;7.20;80.10;;;;;;5029558;28;20037;-73
2021/01/12 12:51:59;;;;;;;6.55;0.95;;;7.30;80.20;;;;;;5028687;28;20052;-72
2021/01/12 12:54:26;;;;;;;16.33;1.73;;;7.30;78.70;;;;;;5027340;28;20400;-73
2021/01/12 12:56:55;;;;;;;7.07;1.10;;;7.30;79.00;;;;;;5030404;28;20038;-73
2021/01/12 12:59:21;;;;;;;12.05;1.50;;;7.30;79.60;;;;;;5029972;28;20075;-73